SBGR/GRU METAR and TAF weather

Enter ICAO airport designator
Station Type Date Time Source
SBGR METAR 2024/06/16 07:00 UTC NOAA

SBGR 160700Z 04002KT CAVOK 14/13 Q1021


Station Type Date Time Source
SBGR Decoded METAR 2024/06/16 07:00 UTC NOAA

Guarulhos Civ / Mil , Brazil (SBGR) 23-26S 046-28W
Jun 16, 2024 - 03:00 AM EDT / 2024.06.16 0700 UTC
Wind: from the NE (040 degrees) at 2 MPH (2 KT):0
Visibility: greater than 7 mile(s):0
Temperature: 57 F (14 C)
Dew Point: 55 F (13 C)
Relative Humidity: 93%
Pressure (altimeter): 30.15 in. Hg (1021 hPa)
ob: SBGR 160700Z 04002KT CAVOK 14/13 Q1021
cycle: 7

Station Type Date Time Source
SBGR TAF 2024/06/16 06:27 UTC NOAA